Time;durP1;ratioP1;P1;durP2;ratioP2;P2;SDS_P1;SDS_P2;PMS_P1;PMS_P2;Temp;Humidity;BMP_temperature;BMP_pressure;BME280_temperature;BME280_humidity;BME280_pressure;Samples;Min_cycle;Max_cycle;Signal;HPM_P1;HPM_P2
2022/08/06 00:02:00;;;;;;;15.43;11.73;;;;;;;22.87;66.98;98370.87;1635641;87;28095;-58
2022/08/06 00:04:26;;;;;;;17.17;12.18;;;;;;;22.90;66.88;98372.05;1635432;87;25783;-57
2022/08/06 00:06:52;;;;;;;13.58;11.03;;;;;;;22.91;66.67;98369.48;1634972;86;25742;-57
2022/08/06 00:09:19;;;;;;;14.47;11.33;;;;;;;22.93;66.26;98376.25;1635375;87;25623;-57
2022/08/06 00:11:45;;;;;;;14.45;10.82;;;;;;;22.87;66.30;98378.45;1635186;87;25482;-57
2022/08/06 00:14:11;;;;;;;13.25;10.10;;;;;;;22.75;66.28;98381.90;1635216;86;27442;-57
2022/08/06 00:16:38;;;;;;;11.43;10.15;;;;;;;22.64;66.03;98384.72;1635120;86;25811;-57
2022/08/06 00:19:05;;;;;;;15.25;10.20;;;;;;;22.63;66.13;98397.69;1632823;86;25691;-60
2022/08/06 00:21:32;;;;;;;14.98;9.35;;;;;;;22.58;65.85;98395.26;1631174;87;25444;-57
2022/08/06 00:23:58;;;;;;;14.87;9.23;;;;;;;22.51;65.81;98394.69;1628543;88;25734;-57
2022/08/06 00:26:24;;;;;;;11.68;8.50;;;;;;;22.47;65.38;98400.27;1628447;88;28452;-57
2022/08/06 00:28:51;;;;;;;9.85;8.50;;;;;;;22.43;65.24;98395.30;1628555;86;25652;-58
2022/08/06 00:31:17;;;;;;;9.55;7.97;;;;;;;22.41;65.23;98390.12;1628451;86;25621;-57
2022/08/06 00:33:43;;;;;;;13.75;8.80;;;;;;;22.40;65.18;98390.52;1628461;86;26424;-58
2022/08/06 00:36:10;;;;;;;10.43;8.28;;;;;;;22.37;65.22;98401.09;1628845;88;25711;-57
2022/08/06 00:38:36;;;;;;;10.23;8.03;;;;;;;22.39;65.21;98393.13;1628654;86;28252;-57
2022/08/06 00:41:04;;;;;;;11.20;7.90;;;;;;;22.40;64.95;98400.28;1628192;86;25933;-57
2022/08/06 00:43:30;;;;;;;9.90;8.28;;;;;;;22.42;64.92;98402.87;1628600;86;25600;-57
2022/08/06 00:46:06;;;;;;;14.20;8.38;;;;;;;22.42;65.01;98407.05;1619424;88;25867;-57
2022/08/06 00:48:37;;;;;;;9.88;7.92;;;;;;;22.38;65.00;98404.88;1628050;87;25643;-57
2022/08/06 00:51:13;;;;;;;11.38;7.92;;;;;;;22.29;65.16;98408.08;1628450;88;27414;-57
2022/08/06 00:53:39;;;;;;;10.30;8.13;;;;;;;22.26;65.52;98408.07;1628500;88;25592;-57
2022/08/06 00:56:07;;;;;;;10.48;7.60;;;;;;;22.24;65.11;98404.88;1628720;86;25621;-57
2022/08/06 00:58:33;;;;;;;9.68;7.40;;;;;;;22.22;65.45;98410.08;1628215;88;25745;-57
2022/08/06 01:00:59;;;;;;;9.43;7.97;;;;;;;22.12;65.83;98406.88;1628459;88;25628;-57
2022/08/06 01:03:25;;;;;;;11.63;7.85;;;;;;;22.09;65.78;98410.47;1628778;86;27428;-57
2022/08/06 01:05:51;;;;;;;9.80;7.53;;;;;;;22.06;65.71;98412.66;1628468;86;25897;-57
2022/08/06 01:08:18;;;;;;;8.05;7.20;;;;;;;22.06;65.50;98412.07;1628440;88;25450;-57
2022/08/06 01:10:44;;;;;;;8.98;6.85;;;;;;;22.05;66.14;98416.66;1628610;88;26565;-57
2022/08/06 01:13:10;;;;;;;8.85;6.97;;;;;;;22.07;65.74;98426.80;1628257;88;25669;-57
2022/08/06 01:15:45;;;;;;;7.95;6.03;;;;;;;22.06;65.44;98427.42;1628534;88;27485;-57
2022/08/06 01:18:31;;;;;;;7.20;6.20;;;;;;;22.08;65.42;98422.03;1628395;88;25128;-58
2022/08/06 01:21:33;;;;;;;7.15;5.65;;;;;;;22.10;65.34;98420.42;1629006;87;25684;-57
2022/08/06 01:24:16;;;;;;;9.00;6.00;;;;;;;22.11;64.79;98420.64;1635429;86;26589;-57
2022/08/06 01:27:15;;;;;;;8.68;5.92;;;;;;;22.11;64.79;98423.44;1635746;86;25502;-57
2022/08/06 01:29:46;;;;;;;12.65;5.58;;;;;;;22.12;64.49;98423.63;1635618;86;27383;-58
2022/08/06 01:32:17;;;;;;;6.80;6.17;;;;;;;22.12;64.24;98427.00;1635699;87;25635;-57
2022/08/06 01:34:53;;;;;;;5.95;4.95;;;;;;;22.08;64.60;98427.02;1635504;87;25461;-57
2022/08/06 01:37:37;;;;;;;7.33;4.75;;;;;;;22.06;64.70;98428.81;1635691;87;25833;-58
2022/08/06 01:40:15;;;;;;;5.83;5.22;;;;;;;22.02;64.39;98437.75;1635626;86;25680;-57
2022/08/06 01:42:44;;;;;;;11.35;5.08;;;;;;;22.01;64.43;98438.16;1635676;87;27622;-58
2022/08/06 01:45:15;;;;;;;7.13;5.30;;;;;;;21.99;64.33;98445.52;1635984;86;25447;-57
2022/08/06 01:47:45;;;;;;;5.92;5.20;;;;;;;21.99;64.28;98443.35;1635357;86;25496;-59
2022/08/06 01:50:15;;;;;;;;;;;;;;;21.98;64.27;98442.55;1638260;87;25817;-58
2022/08/06 01:52:43;;;;;;;7.60;5.22;;;;;;;21.94;64.17;98439.73;1635610;87;25676;-57
2022/08/06 01:55:17;;;;;;;6.00;5.10;;;;;;;21.97;64.05;98446.53;1635675;86;28187;-57
2022/08/06 01:57:53;;;;;;;8.10;5.10;;;;;;;22.01;64.06;98439.55;1635781;86;25783;-57
2022/08/06 02:00:20;;;;;;;5.15;4.60;;;;;;;22.04;63.99;98449.91;1635535;86;25679;-57
2022/08/06 02:02:49;;;;;;;6.50;4.70;;;;;;;22.06;64.08;98452.53;1635531;87;27058;-57
2022/08/06 02:05:19;;;;;;;8.50;5.10;;;;;;;22.05;64.17;98450.14;1635603;86;25439;-57
2022/08/06 02:07:50;;;;;;;5.28;4.67;;;;;;;22.04;63.77;98447.13;1618890;87;27441;-57
2022/08/06 02:10:20;;;;;;;5.95;4.97;;;;;;;22.04;63.94;98458.28;1635739;86;25588;-57
2022/08/06 02:12:49;;;;;;;5.60;4.80;;;;;;;22.03;63.95;98456.11;1635718;86;25461;-57
2022/08/06 02:15:23;;;;;;;7.35;4.62;;;;;;;22.03;63.85;98453.91;1635596;87;26733;-57
2022/08/06 02:17:59;;;;;;;6.50;4.50;;;;;;;22.03;63.76;98464.48;1635957;87;25707;-57
2022/08/06 02:20:35;;;;;;;7.08;4.42;;;;;;;22.05;64.13;98459.28;1635306;87;26703;-57
2022/08/06 02:23:04;;;;;;;6.65;4.83;;;;;;;22.06;63.69;98460.90;1629580;86;25474;-58
2022/08/06 02:25:33;;;;;;;4.90;4.40;;;;;;;22.05;63.95;98456.49;1628575;88;25624;-58
2022/08/06 02:28:01;;;;;;;7.83;4.60;;;;;;;22.05;63.71;98466.26;1628637;88;25641;-59
2022/08/06 02:30:35;;;;;;;4.92;4.42;;;;;;;22.06;63.97;98470.66;1626874;86;25529;-58
2022/08/06 02:33:03;;;;;;;5.60;4.25;;;;;;;22.06;63.92;98470.66;1655344;86;27439;-58
2022/08/06 02:35:40;;;;;;;5.80;4.90;;;;;;;22.09;63.65;98468.26;1655303;86;25447;-58
2022/08/06 02:38:18;;;;;;;9.43;4.65;;;;;;;22.10;63.60;98475.45;1654825;86;25509;-58
2022/08/06 02:40:50;;;;;;;5.15;4.25;;;;;;;22.11;63.59;98486.22;1654594;86;25875;-59
2022/08/06 02:43:21;;;;;;;6.92;4.22;;;;;;;22.14;63.41;98489.58;1635049;86;25459;-58
2022/08/06 02:46:01;;;;;;;5.75;4.35;;;;;;;22.16;63.40;98496.97;1628592;86;28431;-58
2022/08/06 02:48:36;;;;;;;5.42;4.47;;;;;;;22.15;63.35;98498.77;1625722;87;25525;-58
2022/08/06 02:51:08;;;;;;;4.80;4.37;;;;;;;22.17;63.32;98507.55;1627075;87;25520;-58
2022/08/06 02:53:58;;;;;;;7.33;4.30;;;;;;;22.16;63.56;98513.72;1628440;86;25686;-58
2022/08/06 02:56:26;;;;;;;4.78;4.20;;;;;;;22.14;63.51;98515.31;1628473;86;25446;-58
2022/08/06 02:58:54;;;;;;;4.45;4.05;;;;;;;22.11;63.87;98522.49;1628679;88;27421;-58
2022/08/06 03:01:25;;;;;;;6.10;4.15;;;;;;;22.04;63.70;98523.27;1628554;88;25514;-58
2022/08/06 03:03:55;;;;;;;4.60;3.90;;;;;;;22.04;64.20;98532.22;1627918;87;25695;-59
2022/08/06 03:06:25;;;;;;;4.92;4.40;;;;;;;22.00;63.79;98536.41;1628625;86;25736;-58
2022/08/06 03:08:54;;;;;;;6.00;4.20;;;;;;;22.00;63.90;98538.40;1628911;88;25183;-58
2022/08/06 03:11:23;;;;;;;4.40;4.00;;;;;;;21.97;64.04;98541.39;1628838;86;27497;-59
2022/08/06 03:13:51;;;;;;;4.45;4.05;;;;;;;21.97;64.18;98546.16;1628621;88;25427;-58
2022/08/06 03:16:19;;;;;;;4.30;3.90;;;;;;;21.97;64.24;98548.95;1628476;88;25466;-58
2022/08/06 03:18:46;;;;;;;4.78;4.22;;;;;;;21.94;64.64;98558.30;1628566;88;25681;-59
2022/08/06 03:21:14;;;;;;;5.65;4.10;;;;;;;21.97;64.45;98562.31;1628644;88;25670;-58
2022/08/06 03:23:41;;;;;;;6.72;4.30;;;;;;;22.02;64.43;98563.92;1635002;87;28293;-58
2022/08/06 03:26:09;;;;;;;4.28;3.87;;;;;;;22.09;64.39;98564.52;1635599;87;25461;-58
2022/08/06 03:28:36;;;;;;;4.60;4.20;;;;;;;22.09;64.37;98570.10;1635616;86;25758;-58
2022/08/06 03:31:04;;;;;;;4.40;4.00;;;;;;;22.08;64.48;98579.67;1635187;86;25710;-59
2022/08/06 03:33:32;;;;;;;5.37;4.03;;;;;;;22.14;64.32;98582.29;1635148;87;25450;-58
2022/08/06 03:36:01;;;;;;;4.95;3.80;;;;;;;22.18;64.86;98580.30;1635668;86;27367;-58
2022/08/06 03:38:32;;;;;;;5.53;4.15;;;;;;;22.16;64.50;98578.48;1635164;87;25637;-58
2022/08/06 03:41:00;;;;;;;6.85;4.30;;;;;;;22.16;65.15;98585.46;1634598;87;25599;-58
2022/08/06 03:43:26;;;;;;;6.90;4.00;;;;;;;22.13;64.83;98594.03;1635471;86;26694;-58
2022/08/06 03:45:57;;;;;;;4.95;4.22;;;;;;;22.15;64.76;98598.64;1635819;86;25483;-58
2022/08/06 03:48:27;;;;;;;8.53;4.67;;;;;;;22.17;64.75;98609.41;1635664;87;27629;-57
2022/08/06 03:50:54;;;;;;;;;;;;;;;22.19;65.00;98609.20;1637906;87;25631;-58
2022/08/06 03:53:26;;;;;;;4.95;4.10;;;;;;;22.22;65.36;98611.80;1635442;87;25714;-58
2022/08/06 03:55:58;;;;;;;4.97;4.15;;;;;;;22.23;65.29;98622.37;1635680;86;26335;-59
2022/08/06 03:58:29;;;;;;;5.28;4.37;;;;;;;22.24;66.12;98623.38;1635602;87;25661;-58
2022/08/06 04:01:06;;;;;;;6.00;4.17;;;;;;;22.25;65.61;98639.53;1635689;87;27520;-58
2022/08/06 04:03:35;;;;;;;5.25;4.10;;;;;;;22.31;65.59;98641.53;1635431;86;25454;-58
2022/08/06 04:06:02;;;;;;;4.90;4.40;;;;;;;22.35;65.56;98646.33;1631942;86;26183;-58
2022/08/06 04:08:31;;;;;;;4.78;4.12;;;;;;;22.41;65.46;98656.73;1635125;87;25621;-58
2022/08/06 04:10:57;;;;;;;4.72;4.22;;;;;;;22.46;65.62;98660.32;1635338;87;25621;-58
2022/08/06 04:13:26;;;;;;;4.65;4.15;;;;;;;22.50;65.55;98661.92;1635457;86;27537;-58
2022/08/06 04:15:54;;;;;;;4.95;4.17;;;;;;;22.53;66.07;98664.52;1635344;87;26219;-58
2022/08/06 04:18:28;;;;;;;5.92;4.55;;;;;;;22.51;66.07;98669.10;1635569;87;25452;-58
2022/08/06 04:20:59;;;;;;;4.97;4.42;;;;;;;22.51;65.99;98671.89;1635517;86;25832;-59
2022/08/06 04:23:25;;;;;;;6.65;4.40;;;;;;;22.52;66.23;98675.49;1630060;87;25666;-58
2022/08/06 04:25:55;;;;;;;6.15;4.45;;;;;;;22.49;66.63;98678.48;1628800;86;27438;-59
2022/08/06 04:28:25;;;;;;;5.05;4.30;;;;;;;22.46;66.24;98677.88;1628800;86;25443;-58
2022/08/06 04:30:53;;;;;;;7.83;6.07;;;;;;;22.40;66.72;98683.64;1628780;86;25776;-59
2022/08/06 04:33:23;;;;;;;5.12;4.20;;;;;;;22.39;67.12;98685.62;1628311;88;25786;-58
2022/08/06 04:35:50;;;;;;;4.50;4.10;;;;;;;22.39;67.18;98696.80;1628516;88;25660;-58
2022/08/06 04:38:19;;;;;;;5.75;4.80;;;;;;;22.37;66.96;98699.78;1628314;86;27414;-58
2022/08/06 04:40:46;;;;;;;5.17;4.72;;;;;;;22.40;67.12;98699.78;1628593;88;25620;-58
2022/08/06 04:43:13;;;;;;;5.03;4.25;;;;;;;22.40;67.67;98705.98;1628288;86;25689;-58
2022/08/06 04:45:42;;;;;;;5.90;4.60;;;;;;;22.43;67.37;98721.33;1619544;88;25742;-58
2022/08/06 04:48:11;;;;;;;5.62;4.37;;;;;;;22.49;67.58;98719.56;1628679;88;25684;-58
2022/08/06 04:50:45;;;;;;;5.15;4.47;;;;;;;22.57;67.45;98737.95;1628520;88;27432;-58
2022/08/06 04:53:18;;;;;;;5.08;4.58;;;;;;;22.66;68.30;98745.98;1626340;88;25474;-61
2022/08/06 04:55:46;;;;;;;5.20;4.70;;;;;;;22.63;68.04;98753.17;1631451;86;25758;-62
2022/08/06 04:58:16;;;;;;;4.95;4.53;;;;;;;22.70;67.40;98760.75;1675055;85;26324;-58
2022/08/06 05:00:47;;;;;;;4.80;4.33;;;;;;;22.71;67.56;98768.55;1664617;85;26313;-59
2022/08/06 05:03:14;;;;;;;6.08;4.58;;;;;;;22.72;67.62;98772.34;1634675;86;27405;-58
2022/08/06 05:06:12;;;;;;;5.28;4.50;;;;;;;22.72;67.60;98773.73;1669697;85;25733;-58
2022/08/06 05:08:42;;;;;;;5.35;4.70;;;;;;;22.70;67.67;98780.30;1630840;87;25745;-59
2022/08/06 05:11:25;;;;;;;4.97;4.58;;;;;;;22.71;67.73;98783.29;1635702;86;26141;-59
2022/08/06 05:13:58;;;;;;;4.90;4.40;;;;;;;22.80;68.00;98807.47;1624350;88;25790;-59
2022/08/06 05:16:26;;;;;;;5.25;4.50;;;;;;;22.86;67.58;98810.70;1627340;88;27542;-59
2022/08/06 05:19:04;;;;;;;5.00;4.47;;;;;;;22.88;67.41;98812.48;1623116;88;25710;-60
2022/08/06 05:21:36;;;;;;;5.83;4.40;;;;;;;23.00;67.42;98812.72;1623075;88;25705;-63
2022/08/06 05:24:04;;;;;;;4.37;4.00;;;;;;;23.12;67.88;98812.97;1628982;87;26561;-59
2022/08/06 05:26:31;;;;;;;6.83;4.45;;;;;;;23.17;67.79;98832.75;1630153;87;25448;-59
2022/08/06 05:28:57;;;;;;;5.97;3.90;;;;;;;23.13;67.46;98834.72;1675565;85;27504;-59
2022/08/06 05:31:36;;;;;;;6.75;4.10;;;;;;;23.13;67.26;98838.91;1635083;87;25588;-60
2022/08/06 05:34:03;;;;;;;5.15;3.90;;;;;;;23.14;67.48;98839.91;1629849;87;25519;-60
2022/08/06 05:36:30;;;;;;;5.03;4.53;;;;;;;23.13;67.69;98850.91;1629929;88;25739;-59
2022/08/06 05:38:57;;;;;;;5.00;4.50;;;;;;;23.16;67.86;98847.91;1634853;85;25692;-65
2022/08/06 05:41:23;;;;;;;7.08;4.55;;;;;;;23.20;67.97;98857.09;1650454;86;27688;-61
2022/08/06 05:43:50;;;;;;;5.87;4.08;;;;;;;23.16;68.30;98850.11;1657260;86;25735;-60
2022/08/06 05:46:22;;;;;;;4.30;3.85;;;;;;;23.10;68.19;98853.67;1639220;86;25707;-60
2022/08/06 05:49:06;;;;;;;4.30;3.90;;;;;;;23.00;68.38;98852.45;1636471;86;26281;-61
2022/08/06 05:51:40;;;;;;;3.92;3.35;;;;;;;22.98;68.96;98853.44;1638978;87;25815;-62
2022/08/06 05:57:58;;;;;;;4.92;3.67;;;;;;;22.82;69.87;98861.55;1646512;87;25667;-59
2022/08/06 06:00:29;;;;;;;4.30;3.77;;;;;;;22.87;69.63;98870.16;1643355;87;25664;-62
2022/08/06 06:02:58;;;;;;;5.00;3.70;;;;;;;22.86;70.39;98876.36;1646763;86;25734;-60
2022/08/06 06:05:26;;;;;;;5.67;3.75;;;;;;;22.85;70.00;98877.53;1644401;86;25642;-59
2022/08/06 06:07:55;;;;;;;4.33;3.77;;;;;;;22.92;70.18;98873.40;1635335;87;27429;-60
2022/08/06 06:10:24;;;;;;;3.58;3.27;;;;;;;22.92;70.09;98878.17;1635186;86;25740;-59
2022/08/06 06:12:50;;;;;;;7.28;3.25;;;;;;;22.92;70.09;98888.77;1635317;86;25525;-59
2022/08/06 06:15:18;;;;;;;6.60;3.70;;;;;;;22.86;70.54;98893.71;1635543;86;27068;-60
2022/08/06 06:17:56;;;;;;;3.77;3.47;;;;;;;22.86;70.04;98894.52;1635625;87;25693;-59
2022/08/06 06:20:53;;;;;;;4.65;3.70;;;;;;;22.86;70.73;98904.30;1635306;87;29482;-60
2022/08/06 06:23:48;;;;;;;4.83;3.58;;;;;;;22.87;70.85;98903.09;1635135;87;25513;-61
2022/08/06 06:26:35;;;;;;;3.60;3.30;;;;;;;22.80;70.65;98910.05;1635660;87;25502;-60
2022/08/06 06:29:18;;;;;;;4.30;3.40;;;;;;;22.67;70.83;98920.74;1635568;87;27062;-63
2022/08/06 06:32:16;;;;;;;3.58;3.27;;;;;;;22.71;70.78;98924.35;1635450;86;25492;-58
2022/08/06 06:34:48;;;;;;;6.35;3.47;;;;;;;22.61;72.00;98925.91;1635560;86;27454;-58
2022/08/06 06:37:25;;;;;;;3.47;3.10;;;;;;;22.55;71.66;98928.83;1635411;86;25924;-58
2022/08/06 06:40:25;;;;;;;4.53;3.05;;;;;;;22.58;71.75;98923.05;1635031;86;25673;-59
2022/08/06 06:43:00;;;;;;;3.47;2.92;;;;;;;22.60;72.34;98923.50;1635625;87;26520;-59
2022/08/06 06:45:44;;;;;;;4.05;3.25;;;;;;;22.52;72.33;98923.44;1635650;86;25685;-60
2022/08/06 06:48:28;;;;;;;4.20;3.67;;;;;;;22.54;72.10;98921.65;1635021;87;27427;-60
2022/08/06 06:50:59;;;;;;;1.50;1.40;;;;;;;22.67;71.75;98937.50;1635284;86;25565;-59
2022/08/06 06:53:30;;;;;;;1.85;0.90;;;;;;;22.56;70.47;98952.76;1635543;86;25627;-59
2022/08/06 06:55:58;;;;;;;2.95;0.80;;;;;;;22.33;70.52;98962.78;1618954;87;25853;-60
2022/08/06 06:58:54;;;;;;;3.35;0.80;;;;;;;21.99;71.54;98970.05;1635412;86;25712;-60
2022/08/06 07:01:22;;;;;;;0.80;0.53;;;;;;;21.59;72.75;98979.39;1635122;87;26717;-61
2022/08/06 07:03:51;;;;;;;1.12;0.50;;;;;;;21.16;74.33;98983.84;1635815;87;25688;-60
2022/08/06 07:06:19;;;;;;;5.70;0.50;;;;;;;20.90;74.94;98982.67;1635728;86;25579;-60
2022/08/06 07:08:48;;;;;;;2.12;0.70;;;;;;;20.55;76.91;98990.09;1629966;87;25792;-58
2022/08/06 07:11:26;;;;;;;1.67;0.50;;;;;;;20.30;77.08;98995.47;1634199;87;25520;-58
2022/08/06 07:13:57;;;;;;;1.57;0.50;;;;;;;20.01;78.36;99006.67;1634358;87;27401;-62
2022/08/06 07:16:24;;;;;;;;;;;;;;;19.84;78.80;99011.53;1638090;87;25503;-63
2022/08/06 07:18:53;;;;;;;1.65;0.57;;;;;;;19.69;78.44;99014.02;1635513;87;25452;-62
2022/08/06 07:21:23;;;;;;;0.80;0.53;;;;;;;19.50;78.78;99018.20;1635571;86;25943;-62
2022/08/06 07:23:51;;;;;;;1.77;0.60;;;;;;;19.37;80.20;99028.06;1635447;87;25614;-60
2022/08/06 07:26:21;;;;;;;1.00;0.72;;;;;;;19.22;80.71;99035.86;1635587;87;28249;-61
2022/08/06 07:28:50;;;;;;;1.92;1.25;;;;;;;19.04;80.41;99036.25;1634309;86;25680;-61
2022/08/06 07:31:18;;;;;;;2.95;1.50;;;;;;;18.95;81.21;99042.02;1632823;87;25846;-60
2022/08/06 07:33:46;;;;;;;2.62;1.98;;;;;;;18.77;81.44;99040.98;1635533;87;26475;-59
2022/08/06 07:36:17;;;;;;;1.90;1.67;;;;;;;18.68;81.75;99045.34;1635315;86;25442;-59
2022/08/06 07:38:46;;;;;;;1.70;1.60;;;;;;;18.59;83.01;99043.94;1635588;86;28161;-60
2022/08/06 07:41:14;;;;;;;3.98;1.30;;;;;;;18.55;82.31;99044.66;1635269;87;25607;-59
2022/08/06 07:43:54;;;;;;;4.67;1.10;;;;;;;18.50;83.20;99050.46;1635534;86;25716;-60
2022/08/06 07:46:26;;;;;;;1.20;0.93;;;;;;;18.39;83.18;99050.19;1634997;87;25851;-61
2022/08/06 07:49:00;;;;;;;1.95;1.10;;;;;;;18.34;83.63;99049.08;1635235;87;25515;-62
2022/08/06 07:51:31;;;;;;;2.80;1.47;;;;;;;18.30;84.22;99048.16;1635330;86;27300;-62
2022/08/06 07:53:58;;;;;;;3.10;1.50;;;;;;;18.22;83.75;99056.87;1635621;86;25613;-62
2022/08/06 07:56:27;;;;;;;1.95;1.20;;;;;;;18.17;84.32;99058.54;1635525;87;25618;-62
2022/08/06 07:58:55;;;;;;;1.60;1.30;;;;;;;18.09;83.60;99058.08;1635448;86;26501;-61
2022/08/06 08:01:24;;;;;;;1.70;1.40;;;;;;;18.01;84.09;99052.34;1635213;87;25620;-61
2022/08/06 08:06:36;;;;;;;5.75;1.40;;;;;;;17.94;85.01;99058.49;1635074;87;25439;-62
2022/08/06 08:09:12;;;;;;;2.90;1.70;;;;;;;17.86;84.75;99066.41;1635472;87;25740;-60
2022/08/06 08:11:40;;;;;;;3.15;1.60;;;;;;;17.83;85.62;99064.91;1635172;86;25989;-61
2022/08/06 08:14:10;;;;;;;2.10;1.52;;;;;;;17.85;85.04;99070.91;1635738;87;25482;-62
2022/08/06 08:16:40;;;;;;;2.17;1.60;;;;;;;17.84;85.12;99072.87;1635510;87;27377;-61
2022/08/06 08:19:31;;;;;;;2.00;1.82;;;;;;;17.83;85.18;99073.22;1635267;87;25491;-61
2022/08/06 08:21:58;;;;;;;2.42;1.70;;;;;;;17.85;85.49;99073.11;1635297;86;25677;-60
2022/08/06 08:24:28;;;;;;;2.02;1.60;;;;;;;17.90;85.61;99078.39;1631358;87;25827;-60
2022/08/06 08:26:55;;;;;;;1.80;1.70;;;;;;;17.92;86.27;99087.73;1628859;88;25527;-61
2022/08/06 08:29:22;;;;;;;2.55;1.55;;;;;;;17.98;85.68;99086.90;1628606;86;27752;-61
2022/08/06 08:31:48;;;;;;;2.87;1.55;;;;;;;18.05;85.52;99100.38;1628098;88;25682;-61
2022/08/06 08:34:15;;;;;;;1.70;1.50;;;;;;;18.05;86.24;99093.45;1628579;88;25628;-61
2022/08/06 08:36:43;;;;;;;1.65;1.45;;;;;;;18.11;86.52;99105.15;1628404;88;26947;-61
2022/08/06 08:39:10;;;;;;;1.98;1.27;;;;;;;18.13;86.79;99104.19;1628527;86;25683;-61
2022/08/06 08:41:56;;;;;;;2.58;1.20;;;;;;;18.16;86.76;99097.94;1627378;88;27863;-62
2022/08/06 08:44:26;;;;;;;1.10;1.00;;;;;;;18.22;86.75;99101.86;1641529;87;25605;-61
2022/08/06 08:46:58;;;;;;;1.20;1.10;;;;;;;18.26;87.07;99104.14;1626761;88;25710;-60
2022/08/06 08:49:43;;;;;;;1.37;0.90;;;;;;;18.26;87.07;99104.14;1627266;86;26721;-60
2022/08/06 08:52:17;;;;;;;1.60;0.90;;;;;;;18.36;86.48;99119.47;1627277;86;25446;-61
2022/08/06 08:54:51;;;;;;;2.30;1.17;;;;;;;18.39;86.31;99120.15;1627415;86;28131;-60
2022/08/06 08:57:21;;;;;;;1.60;1.25;;;;;;;18.43;86.55;99123.82;1628199;86;25621;-60
2022/08/06 08:59:47;;;;;;;1.30;1.20;;;;;;;18.46;86.81;99125.06;1628812;86;25581;-60
2022/08/06 09:02:14;;;;;;;2.12;1.30;;;;;;;18.49;86.63;99126.56;1628538;86;26082;-60
2022/08/06 09:04:41;;;;;;;1.92;1.30;;;;;;;18.52;87.02;99130.02;1628763;88;25717;-60
2022/08/06 09:07:09;;;;;;;1.40;1.27;;;;;;;18.59;86.50;99130.77;1620873;86;27333;-60
2022/08/06 09:09:38;;;;;;;2.20;1.70;;;;;;;18.61;86.45;99127.62;1621144;88;25999;-60
2022/08/06 09:12:07;;;;;;;2.40;2.20;;;;;;;18.59;86.67;99131.36;1624540;86;25557;-60
2022/08/06 09:14:36;;;;;;;2.67;2.47;;;;;;;18.58;86.34;99136.09;1627154;86;25799;-60
2022/08/06 09:17:05;;;;;;;3.20;2.87;;;;;;;18.60;86.67;99144.88;1627008;86;25624;-60
2022/08/06 09:19:33;;;;;;;3.52;3.22;;;;;;;18.61;86.21;99142.89;1627239;86;27475;-60
2022/08/06 09:22:00;;;;;;;4.15;2.90;;;;;;;18.58;85.67;99156.91;1627212;88;25616;-60
2022/08/06 09:24:27;;;;;;;4.20;3.80;;;;;;;18.54;86.15;99158.19;1626968;86;25647;-60
2022/08/06 09:27:11;;;;;;;4.90;4.33;;;;;;;18.48;85.66;99160.21;1627137;86;26951;-60
2022/08/06 09:29:51;;;;;;;5.33;4.83;;;;;;;18.35;85.42;99171.37;1627268;86;25471;-60
2022/08/06 09:32:39;;;;;;;6.60;4.97;;;;;;;18.22;85.79;99167.83;1627026;87;28080;-60
2022/08/06 09:35:27;;;;;;;5.50;5.00;;;;;;;18.14;86.69;99174.34;1626966;86;25745;-60
2022/08/06 09:38:06;;;;;;;5.80;5.20;;;;;;;18.13;86.47;99172.74;1627281;86;25643;-60
2022/08/06 09:40:34;;;;;;;5.47;4.97;;;;;;;18.06;87.52;99171.91;1627030;86;26573;-60
2022/08/06 09:43:01;;;;;;;5.83;5.28;;;;;;;18.09;86.23;99177.33;1626991;86;25438;-60
2022/08/06 09:45:27;;;;;;;5.15;4.75;;;;;;;18.06;86.58;99174.69;1624675;86;27683;-60
2022/08/06 09:48:09;;;;;;;4.72;4.33;;;;;;;18.01;86.85;99180.47;1625094;88;25696;-60
2022/08/06 09:50:42;;;;;;;4.95;4.47;;;;;;;18.03;87.17;99183.71;1624678;86;25725;-61
2022/08/06 09:53:13;;;;;;;4.55;4.15;;;;;;;18.09;87.01;99184.27;1627093;86;25703;-61
2022/08/06 09:55:40;;;;;;;5.15;4.70;;;;;;;18.03;87.52;99191.46;1627296;86;25717;-61
2022/08/06 09:58:07;;;;;;;4.90;4.42;;;;;;;17.96;87.54;99189.84;1627245;88;27796;-60
2022/08/06 10:00:37;;;;;;;5.30;4.80;;;;;;;17.96;87.16;99197.38;1627274;86;25522;-61
2022/08/06 10:03:09;;;;;;;5.42;4.03;;;;;;;17.99;87.43;99198.84;1627445;86;25697;-60
2022/08/06 10:05:36;;;;;;;4.90;4.08;;;;;;;17.97;87.62;99194.25;1627099;86;26453;-61
2022/08/06 10:08:13;;;;;;;3.52;2.70;;;;;;;18.00;87.39;99201.05;1627037;88;25602;-60
2022/08/06 10:10:52;;;;;;;3.00;2.00;;;;;;;18.04;87.44;99198.61;1626825;86;28348;-60
2022/08/06 10:13:26;;;;;;;1.98;1.85;;;;;;;18.13;87.07;99205.42;1627346;86;25673;-60
2022/08/06 10:15:59;;;;;;;1.98;1.60;;;;;;;18.21;87.46;99217.54;1627229;86;25466;-60
2022/08/06 10:18:39;;;;;;;2.20;2.00;;;;;;;18.27;87.42;99211.16;1627442;88;26018;-61
2022/08/06 10:21:13;;;;;;;3.15;2.85;;;;;;;18.37;87.48;99219.00;1627363;87;25498;-61
2022/08/06 10:23:41;;;;;;;3.22;2.92;;;;;;;18.43;87.80;99223.71;1627157;88;28383;-60
2022/08/06 10:26:13;;;;;;;4.00;3.50;;;;;;;18.47;86.82;99226.56;1626860;87;25507;-61
2022/08/06 10:28:44;;;;;;;6.35;5.37;;;;;;;18.46;86.67;99225.78;1627055;86;25455;-61
2022/08/06 10:31:13;;;;;;;;;;;;;;;18.38;86.05;99229.50;1629303;86;26641;-61
2022/08/06 10:33:59;;;;;;;6.28;5.67;;;;;;;18.25;85.74;99233.70;1627259;88;25500;-61
2022/08/06 10:36:43;;;;;;;4.20;3.50;;;;;;;18.15;85.58;99233.63;1627077;86;27685;-60
2022/08/06 10:39:10;;;;;;;2.77;2.58;;;;;;;18.05;85.92;99236.27;1627204;86;25595;-60
2022/08/06 10:41:40;;;;;;;4.83;3.70;;;;;;;17.97;85.85;99236.41;1627330;86;25667;-60
2022/08/06 10:44:08;;;;;;;4.75;3.50;;;;;;;17.94;86.40;99238.72;1626849;86;25889;-61
2022/08/06 10:46:35;;;;;;;3.95;3.55;;;;;;;17.92;85.86;99236.89;1623592;86;25705;-61
2022/08/06 10:49:02;;;;;;;3.30;2.98;;;;;;;17.88;86.06;99238.72;1659692;85;27373;-60
2022/08/06 10:51:29;;;;;;;2.90;2.60;;;;;;;17.83;86.25;99241.75;1622889;88;25766;-60
2022/08/06 10:53:56;;;;;;;3.10;2.40;;;;;;;17.85;86.53;99245.56;1623291;88;25464;-60
2022/08/06 10:56:26;;;;;;;2.33;2.12;;;;;;;17.79;86.90;99242.23;1627567;88;26283;-60
2022/08/06 10:58:54;;;;;;;2.40;2.20;;;;;;;17.81;86.55;99239.89;1629047;88;25705;-60
2022/08/06 11:01:40;;;;;;;2.37;2.08;;;;;;;17.88;87.38;99246.25;1628510;88;28367;-61
2022/08/06 11:04:18;;;;;;;2.05;1.82;;;;;;;17.82;86.83;99251.23;1628202;87;25644;-60
2022/08/06 11:07:12;;;;;;;1.90;1.80;;;;;;;17.87;87.17;99253.75;1622894;87;25464;-60
2022/08/06 11:09:50;;;;;;;2.10;1.90;;;;;;;17.85;86.54;99255.27;1592610;89;26625;-60
2022/08/06 11:12:25;;;;;;;1.80;1.70;;;;;;;17.71;85.40;99259.20;1580475;89;25486;-60
2022/08/06 11:14:52;;;;;;;2.37;1.72;;;;;;;17.65;86.02;99262.77;1516151;94;28347;-60
2022/08/06 11:17:18;;;;;;;1.87;1.67;;;;;;;17.62;86.39;99264.84;1531394;93;26487;-60
2022/08/06 11:19:50;;;;;;;2.60;1.87;;;;;;;17.52;86.00;99264.75;1531584;93;25788;-60
2022/08/06 11:22:39;;;;;;;2.50;2.00;;;;;;;17.44;86.93;99260.11;1541449;93;25819;-60
2022/08/06 11:25:09;;;;;;;3.25;2.00;;;;;;;17.41;86.68;99266.34;1544655;92;25773;-60
2022/08/06 11:27:55;;;;;;;2.10;1.90;;;;;;;17.40;87.28;99258.62;1546720;92;27554;-60
2022/08/06 11:30:26;;;;;;;2.35;2.02;;;;;;;17.41;87.63;99267.16;1552066;92;25516;-60
2022/08/06 11:32:53;;;;;;;2.10;1.90;;;;;;;17.40;87.62;99265.55;1520761;94;25523;-60
2022/08/06 11:35:41;;;;;;;2.17;2.00;;;;;;;17.42;87.32;99263.23;1499864;95;25795;-60
2022/08/06 11:38:10;;;;;;;2.35;2.00;;;;;;;17.44;87.33;99258.73;1523769;94;25578;-60
2022/08/06 11:41:01;;;;;;;2.10;1.87;;;;;;;17.46;87.05;99263.36;1500559;95;27428;-60
2022/08/06 11:43:56;;;;;;;2.27;2.08;;;;;;;17.47;87.01;99269.13;1503028;95;25542;-59
2022/08/06 11:46:37;;;;;;;2.67;2.05;;;;;;;17.50;87.39;99267.64;1518477;92;25775;-59
2022/08/06 11:49:20;;;;;;;2.98;2.27;;;;;;;17.52;87.22;99270.29;1586847;90;25745;-59
2022/08/06 11:51:59;;;;;;;2.70;2.33;;;;;;;17.56;86.86;99260.72;1590413;89;25744;-59
2022/08/06 11:54:45;;;;;;;3.12;2.50;;;;;;;17.63;87.07;99261.51;1582182;90;27831;-59
2022/08/06 11:57:17;;;;;;;3.50;2.50;;;;;;;17.64;86.65;99258.39;1581777;90;25712;-59
2022/08/06 11:59:58;;;;;;;2.83;2.42;;;;;;;17.64;86.60;99263.11;1582223;90;25579;-59
2022/08/06 12:02:49;;;;;;;2.90;2.70;;;;;;;17.59;86.51;99264.19;1581687;90;25864;-59
2022/08/06 12:05:19;;;;;;;;;;;;;;;17.56;86.91;99264.88;1609420;89;25621;-59